createdAt,value
2019-01-11T00:00:35.315Z,31.83
2019-01-11T00:03:01.634Z,31.79
2019-01-11T00:05:27.967Z,31.85
2019-01-11T00:07:54.291Z,31.89
2019-01-11T00:10:20.621Z,31.95
2019-01-11T00:12:46.949Z,31.90
2019-01-11T00:15:13.342Z,31.86
2019-01-11T00:17:39.712Z,31.94
2019-01-11T00:20:06.053Z,31.76
2019-01-11T00:22:32.379Z,31.84
2019-01-11T00:24:58.713Z,31.79
2019-01-11T00:27:25.102Z,31.85
2019-01-11T00:29:51.428Z,31.93
2019-01-11T00:32:17.793Z,32.05
2019-01-11T00:34:44.139Z,31.96
2019-01-11T00:37:10.522Z,31.95
2019-01-11T00:39:36.855Z,31.96
2019-01-11T00:42:03.182Z,31.98
2019-01-11T00:44:29.520Z,31.94
2019-01-11T00:46:55.872Z,31.89
2019-01-11T00:49:22.206Z,31.96
2019-01-11T00:51:48.544Z,31.86
2019-01-11T00:54:14.939Z,31.88
2019-01-11T00:56:41.268Z,31.94
2019-01-11T00:59:07.603Z,31.97
2019-01-11T01:01:33.962Z,31.95
2019-01-11T01:04:00.363Z,31.88
2019-01-11T01:06:26.738Z,31.63
2019-01-11T01:08:53.111Z,31.18
2019-01-11T01:11:19.462Z,30.58
2019-01-11T01:13:45.795Z,30.06
2019-01-11T01:16:12.141Z,29.86
2019-01-11T01:18:38.573Z,29.81
2019-01-11T01:21:04.905Z,29.68
2019-01-11T01:23:31.315Z,29.57
2019-01-11T01:25:57.659Z,29.52
2019-01-11T01:28:23.998Z,29.42
2019-01-11T01:30:50.344Z,29.37
2019-01-11T01:33:16.672Z,29.25
2019-01-11T01:35:43.196Z,29.30
2019-01-11T01:38:09.539Z,29.31
2019-01-11T01:40:35.877Z,29.33
2019-01-11T01:43:02.210Z,29.22
2019-01-11T01:45:28.595Z,29.29
2019-01-11T01:47:54.927Z,29.16
2019-01-11T01:50:21.206Z,29.04
2019-01-11T01:52:47.588Z,28.99
2019-01-11T01:55:14.047Z,29.01
2019-01-11T01:57:40.476Z,28.77
2019-01-11T02:00:06.827Z,28.69
2019-01-11T02:02:33.169Z,28.67
2019-01-11T02:04:59.572Z,28.55
2019-01-11T02:07:25.924Z,28.68
2019-01-11T02:09:52.249Z,28.61
2019-01-11T02:12:19.604Z,28.62
2019-01-11T02:14:45.097Z,28.64
2019-01-11T02:17:11.584Z,28.54
2019-01-11T02:19:37.878Z,28.40
2019-01-11T02:22:04.206Z,28.33
2019-01-11T02:24:30.545Z,28.28
2019-01-11T02:26:56.906Z,28.11
2019-01-11T02:29:23.198Z,28.01
2019-01-11T02:31:49.565Z,27.92
2019-01-11T02:34:15.855Z,27.91
2019-01-11T02:36:42.188Z,27.86
2019-01-11T02:39:08.577Z,27.88
2019-01-11T02:41:34.913Z,27.87
2019-01-11T02:44:01.365Z,27.87
2019-01-11T02:46:27.779Z,27.85
2019-01-11T02:48:54.057Z,27.82
2019-01-11T02:51:20.388Z,27.82
2019-01-11T02:53:46.747Z,27.81
2019-01-11T02:56:13.068Z,27.62
2019-01-11T02:58:39.426Z,27.67
2019-01-11T03:01:05.793Z,27.51
2019-01-11T03:03:32.188Z,27.56
2019-01-11T03:05:58.564Z,27.65
2019-01-11T03:08:24.911Z,27.64
2019-01-11T03:10:51.732Z,27.69
2019-01-11T03:13:17.685Z,27.60
2019-01-11T03:15:43.963Z,27.58
2019-01-11T03:18:10.343Z,27.56
2019-01-11T03:20:36.843Z,27.45
2019-01-11T03:23:03.290Z,27.40
2019-01-11T03:25:29.627Z,27.38
2019-01-11T03:27:55.992Z,27.33
2019-01-11T03:30:22.287Z,27.24
2019-01-11T03:32:48.835Z,27.21
2019-01-11T03:35:15.206Z,27.16
2019-01-11T03:37:41.582Z,27.12
2019-01-11T03:40:07.968Z,27.17
2019-01-11T03:42:34.442Z,27.23
2019-01-11T03:45:00.782Z,27.29
2019-01-11T03:47:27.094Z,27.33
2019-01-11T03:49:54.935Z,27.29
2019-01-11T03:52:21.118Z,27.28
2019-01-11T03:54:46.252Z,27.17
2019-01-11T03:57:12.612Z,27.05
2019-01-11T03:59:39.039Z,27.06
2019-01-11T04:02:05.363Z,27.01
2019-01-11T04:04:31.777Z,27.03
2019-01-11T04:06:58.112Z,27.03
2019-01-11T04:09:24.454Z,27.04
2019-01-11T04:11:50.792Z,27.00
2019-01-11T04:14:17.183Z,27.02
2019-01-11T04:16:43.520Z,27.37
2019-01-11T04:19:09.861Z,27.30
2019-01-11T04:21:36.193Z,27.48
2019-01-11T04:24:02.587Z,27.41
2019-01-11T04:26:28.960Z,27.38
2019-01-11T04:28:55.287Z,27.43
2019-01-11T04:31:21.666Z,27.21
2019-01-11T04:33:48.021Z,27.14
2019-01-11T04:36:14.348Z,27.14
2019-01-11T04:38:40.689Z,27.15
2019-01-11T04:41:07.099Z,27.24
2019-01-11T04:43:33.435Z,27.14
2019-01-11T04:45:59.784Z,27.19
2019-01-11T04:48:26.114Z,27.12
2019-01-11T04:50:52.446Z,27.06
2019-01-11T04:53:18.820Z,27.03
2019-01-11T04:55:45.149Z,27.02
2019-01-11T04:58:11.478Z,26.96
2019-01-11T05:00:37.816Z,27.03
2019-01-11T05:03:04.160Z,27.07
2019-01-11T05:05:30.490Z,27.05
2019-01-11T05:07:56.906Z,27.13
2019-01-11T05:10:23.238Z,27.02
2019-01-11T05:12:49.646Z,27.01
2019-01-11T05:15:15.976Z,27.02
2019-01-11T05:17:42.433Z,27.01
2019-01-11T05:20:08.867Z,26.99
2019-01-11T05:22:35.271Z,26.94
2019-01-11T05:25:01.611Z,26.85
2019-01-11T05:27:27.933Z,26.93
2019-01-11T05:29:54.396Z,27.05
2019-01-11T05:32:20.742Z,27.10
2019-01-11T05:34:47.103Z,27.09
2019-01-11T05:37:13.488Z,27.10
2019-01-11T05:39:39.890Z,27.11
2019-01-11T05:42:06.246Z,26.98
2019-01-11T05:44:32.601Z,27.09
2019-01-11T05:46:58.931Z,27.11
2019-01-11T05:49:25.329Z,26.88
2019-01-11T05:51:51.640Z,26.84
2019-01-11T05:54:17.998Z,26.65
2019-01-11T05:56:44.319Z,26.77
2019-01-11T05:59:10.708Z,26.82
2019-01-11T06:01:37.018Z,26.70
2019-01-11T06:04:03.429Z,26.63
2019-01-11T06:06:29.822Z,26.48
2019-01-11T06:08:56.150Z,26.73
2019-01-11T06:11:22.523Z,26.94
2019-01-11T06:13:48.893Z,26.75
2019-01-11T06:16:15.219Z,26.74
2019-01-11T06:18:41.608Z,27.13
2019-01-11T06:21:07.990Z,27.18
2019-01-11T06:23:38.508Z,27.01
2019-01-11T06:26:04.822Z,26.99
2019-01-11T06:28:31.151Z,26.98
2019-01-11T06:30:57.564Z,27.14
2019-01-11T06:33:23.973Z,27.08
2019-01-11T06:35:50.309Z,26.93
2019-01-11T06:38:16.734Z,27.27
2019-01-11T06:40:43.071Z,27.16
2019-01-11T06:43:09.404Z,27.22
2019-01-11T06:45:35.853Z,27.22
2019-01-11T06:48:02.190Z,27.28
2019-01-11T06:50:28.569Z,27.09
2019-01-11T06:52:55.504Z,26.83
2019-01-11T06:55:21.602Z,26.99
2019-01-11T06:57:47.941Z,26.96
2019-01-11T07:00:14.368Z,26.88
2019-01-11T07:02:40.702Z,27.40
2019-01-11T07:05:07.032Z,26.86
2019-01-11T07:07:33.364Z,26.83
2019-01-11T07:09:59.778Z,26.46
2019-01-11T07:12:26.305Z,26.61
2019-01-11T07:14:52.640Z,26.90
2019-01-11T07:17:18.972Z,26.75
2019-01-11T07:19:45.387Z,26.66
2019-01-11T07:22:11.708Z,26.80
2019-01-11T07:24:38.083Z,26.72
2019-01-11T07:27:04.420Z,26.28
2019-01-11T07:29:30.831Z,26.65
2019-01-11T07:31:57.233Z,26.57
2019-01-11T07:34:23.570Z,27.17
2019-01-11T07:36:49.926Z,26.93
2019-01-11T07:39:16.359Z,26.65
2019-01-11T07:41:42.889Z,26.91
2019-01-11T07:44:09.219Z,26.75
2019-01-11T07:46:35.561Z,26.42
2019-01-11T07:49:01.958Z,27.25
2019-01-11T07:51:28.345Z,27.29
2019-01-11T07:53:54.701Z,26.55
2019-01-11T07:56:21.093Z,26.74
2019-01-11T07:58:47.419Z,26.37
2019-01-11T08:01:13.858Z,26.56
2019-01-11T08:03:40.191Z,27.40
2019-01-11T08:06:06.630Z,26.91
2019-01-11T08:08:32.923Z,26.26
2019-01-11T08:10:59.287Z,27.00
2019-01-11T08:13:25.623Z,27.48
2019-01-11T08:15:52.028Z,26.46
2019-01-11T08:18:18.361Z,26.32
2019-01-11T08:20:44.686Z,26.50
2019-01-11T08:23:11.057Z,26.87
2019-01-11T08:25:37.554Z,26.24
2019-01-11T08:28:03.963Z,26.27
2019-01-11T08:30:30.283Z,26.70
2019-01-11T08:32:56.639Z,27.47
2019-01-11T08:35:22.988Z,26.76
2019-01-11T08:37:49.339Z,26.85
2019-01-11T08:40:15.885Z,26.24
2019-01-11T08:42:42.239Z,26.83
2019-01-11T08:45:08.582Z,26.52
2019-01-11T08:47:35.426Z,26.44
2019-01-11T08:50:03.910Z,26.25
2019-01-11T08:52:30.268Z,26.61
2019-01-11T08:54:56.672Z,26.44
2019-01-11T08:57:22.971Z,26.14
2019-01-11T08:59:49.309Z,26.21
2019-01-11T09:02:15.712Z,26.42
2019-01-11T09:04:42.146Z,26.99
2019-01-11T09:07:08.487Z,26.71
2019-01-11T09:09:35.004Z,26.47
2019-01-11T09:12:01.416Z,26.55
2019-01-11T09:14:27.747Z,26.54
2019-01-11T09:16:54.183Z,26.38
2019-01-11T09:19:20.587Z,26.55
2019-01-11T09:21:46.900Z,26.50
2019-01-11T09:24:15.158Z,26.60
2019-01-11T09:26:41.654Z,26.59
2019-01-11T09:29:08.459Z,26.48
2019-01-11T09:31:34.782Z,26.48
2019-01-11T09:34:01.169Z,26.56
2019-01-11T09:36:27.516Z,26.66
2019-01-11T09:38:53.900Z,26.36
2019-01-11T09:41:20.318Z,26.49
2019-01-11T09:43:46.605Z,26.57
2019-01-11T09:46:13.016Z,26.46
2019-01-11T09:48:39.449Z,26.24
2019-01-11T09:51:05.844Z,26.48
2019-01-11T09:53:32.212Z,26.25
2019-01-11T09:55:58.595Z,26.32
2019-01-11T09:58:24.938Z,26.69
2019-01-11T10:00:51.323Z,26.54
2019-01-11T10:03:17.650Z,26.60
2019-01-11T10:05:43.979Z,26.93
2019-01-11T10:08:10.326Z,26.23
2019-01-11T10:10:36.707Z,26.78
2019-01-11T10:13:03.046Z,26.38
2019-01-11T10:15:29.402Z,26.25
2019-01-11T10:17:55.799Z,26.39
2019-01-11T10:20:22.181Z,26.32
2019-01-11T10:22:48.674Z,26.47
2019-01-11T10:25:14.946Z,26.36
2019-01-11T10:27:41.309Z,26.12
2019-01-11T10:30:08.781Z,26.46
2019-01-11T10:32:35.138Z,26.16
2019-01-11T10:35:01.484Z,26.31
2019-01-11T10:37:27.819Z,26.05
2019-01-11T10:39:54.161Z,26.16
2019-01-11T10:42:20.560Z,26.26
2019-01-11T10:44:46.969Z,26.42
2019-01-11T10:47:13.378Z,26.61
2019-01-11T10:49:39.724Z,26.64
2019-01-11T10:52:06.064Z,26.70
2019-01-11T10:54:32.408Z,26.46
2019-01-11T10:56:58.789Z,26.77
2019-01-11T10:59:25.156Z,26.68
2019-01-11T11:01:51.489Z,26.43
2019-01-11T11:04:17.865Z,26.78
2019-01-11T11:06:44.214Z,26.95
2019-01-11T11:09:10.603Z,27.08
2019-01-11T11:11:36.956Z,27.00
2019-01-11T11:14:03.280Z,26.89
2019-01-11T11:16:32.884Z,26.83
2019-01-11T11:18:56.028Z,26.92
2019-01-11T11:21:22.402Z,26.74
2019-01-11T11:23:48.900Z,26.62
2019-01-11T11:26:15.273Z,26.80
2019-01-11T11:28:41.760Z,26.57
2019-01-11T11:31:08.148Z,26.74
2019-01-11T11:33:35.040Z,26.75
2019-01-11T11:36:01.392Z,26.71
2019-01-11T11:38:27.810Z,26.68
2019-01-11T11:40:54.196Z,26.75
2019-01-11T11:43:21.689Z,26.64
2019-01-11T11:45:48.026Z,26.68
2019-01-11T11:48:14.373Z,26.96
2019-01-11T11:50:41.148Z,26.97
2019-01-11T11:53:07.975Z,26.97
2019-01-11T11:55:34.458Z,27.06
2019-01-11T11:58:00.778Z,27.13
2019-01-11T12:00:27.352Z,27.45
2019-01-11T12:02:53.710Z,27.45
2019-01-11T12:05:20.403Z,27.85
2019-01-11T12:07:46.935Z,27.48
2019-01-11T12:10:14.452Z,27.46
2019-01-11T12:12:40.859Z,27.67
2019-01-11T12:15:07.813Z,27.58
2019-01-11T12:17:34.140Z,27.51
2019-01-11T12:20:00.470Z,27.24
2019-01-11T12:22:26.840Z,27.61
2019-01-11T12:24:53.140Z,27.37
2019-01-11T12:27:19.491Z,27.36
2019-01-11T12:29:45.855Z,27.39
2019-01-11T12:32:12.206Z,27.40
2019-01-11T12:34:38.635Z,27.41
2019-01-11T12:37:05.018Z,27.36
2019-01-11T12:39:31.646Z,27.34
2019-01-11T12:41:58.077Z,27.41
2019-01-11T12:44:24.419Z,27.48
2019-01-11T12:46:51.006Z,27.57
2019-01-11T12:49:17.407Z,27.82
2019-01-11T12:51:44.017Z,27.58
2019-01-11T12:54:12.293Z,27.87
2019-01-11T12:56:37.181Z,27.98
2019-01-11T12:59:03.459Z,27.64
2019-01-11T13:01:31.019Z,27.73
2019-01-11T13:03:57.544Z,28.82
2019-01-11T13:06:24.090Z,28.44
2019-01-11T13:08:50.398Z,28.50
2019-01-11T13:11:17.161Z,28.49
2019-01-11T13:13:43.617Z,28.78
2019-01-11T13:16:17.842Z,28.61
2019-01-11T13:18:44.133Z,28.31
2019-01-11T13:21:11.149Z,28.56
2019-01-11T13:23:37.917Z,28.54
2019-01-11T13:26:04.453Z,28.50
2019-01-11T13:28:30.869Z,28.62
2019-01-11T13:30:57.211Z,28.58
2019-01-11T13:33:23.598Z,28.59
2019-01-11T13:35:50.190Z,28.81
2019-01-11T13:38:16.520Z,28.75
2019-01-11T13:40:42.958Z,28.64
2019-01-11T13:43:09.404Z,28.74
2019-01-11T13:45:35.836Z,29.02
2019-01-11T13:48:02.295Z,28.50
2019-01-11T13:50:28.693Z,28.43
2019-01-11T13:52:55.105Z,28.32
2019-01-11T13:55:21.435Z,28.82
2019-01-11T13:57:47.767Z,28.36
2019-01-11T14:00:14.716Z,28.28
2019-01-11T14:02:40.579Z,28.29
2019-01-11T14:05:06.988Z,28.41
2019-01-11T14:07:33.351Z,28.37
2019-01-11T14:09:59.768Z,28.56
2019-01-11T14:12:26.108Z,28.58
2019-01-11T14:14:52.457Z,28.57
2019-01-11T14:17:19.145Z,28.32
2019-01-11T14:19:45.491Z,28.52
2019-01-11T14:22:13.734Z,28.56
2019-01-11T14:24:38.273Z,28.69
2019-01-11T14:27:05.705Z,28.62
2019-01-11T14:29:32.048Z,28.68
2019-01-11T14:31:58.484Z,28.73
2019-01-11T14:34:25.178Z,28.26
2019-01-11T14:36:52.012Z,28.29
2019-01-11T14:39:18.664Z,28.51
2019-01-11T14:41:45.817Z,28.22
2019-01-11T14:44:12.481Z,28.20
2019-01-11T14:46:39.005Z,28.36
2019-01-11T14:49:05.353Z,28.28
2019-01-11T14:51:31.976Z,28.07
2019-01-11T14:53:58.312Z,29.33
2019-01-11T14:56:25.934Z,28.42
2019-01-11T14:58:52.241Z,28.61
2019-01-11T15:01:18.643Z,28.54
2019-01-11T15:03:44.977Z,29.13
2019-01-11T15:06:11.325Z,28.78
2019-01-11T15:08:37.660Z,28.45
2019-01-11T15:11:04.017Z,28.89
2019-01-11T15:13:30.406Z,29.33
2019-01-11T15:15:56.833Z,28.97
2019-01-11T15:18:23.167Z,29.06
2019-01-11T15:20:49.533Z,28.80
2019-01-11T15:23:15.878Z,28.54
2019-01-11T15:25:42.205Z,28.49
2019-01-11T15:28:08.600Z,28.39
2019-01-11T15:30:34.936Z,28.29
2019-01-11T15:33:01.263Z,28.80
2019-01-11T15:35:27.651Z,28.39
2019-01-11T15:37:54.029Z,28.31
2019-01-11T15:40:20.461Z,28.29
2019-01-11T15:42:46.890Z,28.21
2019-01-11T15:45:13.214Z,28.32
2019-01-11T15:47:40.634Z,28.66
2019-01-11T15:50:06.994Z,28.34
2019-01-11T15:52:33.544Z,28.61
2019-01-11T15:54:59.674Z,28.31
2019-01-11T15:57:26.008Z,29.00
2019-01-11T15:59:52.391Z,28.10
2019-01-11T16:02:18.776Z,28.23
2019-01-11T16:04:45.107Z,28.19
2019-01-11T16:07:11.452Z,28.03
2019-01-11T16:09:37.835Z,28.17
2019-01-11T16:12:04.199Z,28.04
2019-01-11T16:14:30.523Z,28.00
2019-01-11T16:16:57.834Z,28.05
2019-01-11T16:19:24.184Z,27.84
2019-01-11T16:21:50.570Z,27.82
2019-01-11T16:24:16.926Z,27.95
2019-01-11T16:26:43.323Z,27.96
2019-01-11T16:29:09.684Z,27.96
2019-01-11T16:31:36.149Z,27.82
2019-01-11T16:34:02.495Z,27.85
2019-01-11T16:36:28.830Z,27.83
2019-01-11T16:38:55.153Z,27.43
2019-01-11T16:41:21.489Z,27.54
2019-01-11T16:43:47.871Z,28.01
2019-01-11T16:46:14.202Z,28.08
2019-01-11T16:48:40.529Z,27.73
2019-01-11T16:51:06.864Z,28.22
2019-01-11T16:53:33.188Z,27.82
2019-01-11T16:55:59.588Z,27.63
2019-01-11T16:58:25.929Z,27.49
2019-01-11T17:00:52.280Z,27.44
2019-01-11T17:03:18.631Z,27.37
2019-01-11T17:05:44.949Z,27.56
2019-01-11T17:08:11.320Z,27.49
2019-01-11T17:10:37.665Z,27.43
2019-01-11T17:13:03.990Z,27.42
2019-01-11T17:15:30.320Z,27.35
2019-01-11T17:17:56.661Z,27.02
2019-01-11T17:20:23.011Z,27.03
2019-01-11T17:22:52.898Z,26.90
2019-01-11T17:25:15.702Z,27.01
2019-01-11T17:27:42.078Z,26.95
2019-01-11T17:30:10.682Z,26.82
2019-01-11T17:32:36.999Z,26.85
2019-01-11T17:35:03.332Z,26.73
2019-01-11T17:37:29.677Z,26.75
2019-01-11T17:39:56.030Z,26.64
2019-01-11T17:42:22.370Z,26.68
2019-01-11T17:44:48.701Z,26.77
2019-01-11T17:47:15.048Z,26.71
2019-01-11T17:49:41.393Z,26.73
2019-01-11T17:52:07.724Z,26.56
2019-01-11T17:54:34.070Z,26.54
2019-01-11T17:57:00.395Z,26.45
2019-01-11T17:59:26.772Z,26.55
2019-01-11T18:01:53.092Z,26.35
2019-01-11T18:04:19.454Z,26.39
2019-01-11T18:06:45.798Z,26.35
2019-01-11T18:09:12.133Z,26.58
2019-01-11T18:11:38.572Z,26.49
2019-01-11T18:14:04.918Z,26.68
2019-01-11T18:16:31.249Z,26.77
2019-01-11T18:18:57.589Z,26.92
2019-01-11T18:21:23.916Z,26.98
2019-01-11T18:23:50.256Z,27.07
2019-01-11T18:26:16.603Z,27.02
2019-01-11T18:28:43.114Z,27.05
2019-01-11T18:31:09.728Z,27.12
2019-01-11T18:33:36.081Z,27.18
2019-01-11T18:36:02.426Z,27.23
2019-01-11T18:38:28.838Z,27.35
2019-01-11T18:40:55.169Z,27.37
2019-01-11T18:43:21.493Z,27.37
2019-01-11T18:45:47.828Z,27.33
2019-01-11T18:48:14.154Z,27.42
2019-01-11T18:50:40.489Z,27.49
2019-01-11T18:53:13.462Z,27.45
2019-01-11T18:55:33.328Z,27.51
2019-01-11T18:57:59.683Z,27.48
2019-01-11T19:00:26.065Z,27.38
2019-01-11T19:02:52.444Z,27.33
2019-01-11T19:05:18.775Z,27.34
2019-01-11T19:07:46.245Z,27.37
2019-01-11T19:10:11.461Z,27.43
2019-01-11T19:12:37.782Z,27.46
2019-01-11T19:15:04.119Z,27.48
2019-01-11T19:17:30.495Z,27.45
2019-01-11T19:19:56.825Z,27.35
2019-01-11T19:22:23.169Z,27.34
2019-01-11T19:24:49.537Z,27.35
2019-01-11T19:27:15.881Z,27.36
2019-01-11T19:29:42.237Z,27.32
2019-01-11T19:32:08.634Z,27.35
2019-01-11T19:34:34.964Z,27.34
2019-01-11T19:37:01.331Z,27.31
2019-01-11T19:39:27.671Z,27.28
2019-01-11T19:41:54.020Z,27.31
2019-01-11T19:44:20.351Z,27.35
2019-01-11T19:46:46.690Z,27.36
2019-01-11T19:49:13.128Z,27.36
2019-01-11T19:51:39.444Z,27.42
2019-01-11T19:54:05.795Z,27.42
2019-01-11T19:56:32.631Z,27.41
2019-01-11T19:58:58.986Z,27.46
2019-01-11T20:01:25.313Z,27.43
2019-01-11T20:03:51.618Z,27.51
2019-01-11T20:06:17.956Z,27.46
2019-01-11T20:08:44.371Z,27.43
2019-01-11T20:11:10.800Z,27.50
2019-01-11T20:13:37.152Z,27.54
2019-01-11T20:16:03.546Z,27.68
2019-01-11T20:18:29.878Z,27.79
2019-01-11T20:20:56.206Z,27.92
2019-01-11T20:23:22.561Z,28.03
2019-01-11T20:25:48.968Z,28.01
2019-01-11T20:28:15.300Z,28.10
2019-01-11T20:30:41.635Z,28.24
2019-01-11T20:33:07.973Z,28.31
2019-01-11T20:35:34.332Z,28.38
2019-01-11T20:38:00.724Z,28.43
2019-01-11T20:40:27.091Z,28.52
2019-01-11T20:42:53.393Z,28.60
2019-01-11T20:45:19.743Z,28.56
2019-01-11T20:47:46.095Z,28.72
2019-01-11T20:50:12.437Z,28.73
2019-01-11T20:52:38.779Z,28.75
2019-01-11T20:55:05.120Z,28.81
2019-01-11T20:57:31.471Z,28.84
2019-01-11T20:59:57.780Z,28.89
2019-01-11T21:02:24.130Z,29.01
2019-01-11T21:04:50.458Z,28.92
2019-01-11T21:07:16.791Z,29.00
2019-01-11T21:09:43.103Z,29.06
2019-01-11T21:12:09.433Z,29.07
2019-01-11T21:14:40.208Z,28.98
2019-01-11T21:17:06.538Z,29.02
2019-01-11T21:19:32.869Z,29.10
2019-01-11T21:21:59.209Z,29.15
2019-01-11T21:24:25.621Z,29.28
2019-01-11T21:26:52.052Z,29.34
2019-01-11T21:29:18.328Z,29.30
2019-01-11T21:31:44.712Z,29.43
2019-01-11T21:34:11.060Z,29.31
2019-01-11T21:36:37.388Z,29.36
2019-01-11T21:39:03.751Z,29.49
2019-01-11T21:41:30.052Z,29.66
2019-01-11T21:43:56.405Z,29.57
2019-01-11T21:46:22.743Z,29.59
2019-01-11T21:48:49.091Z,29.61
2019-01-11T21:51:15.458Z,29.58
2019-01-11T21:53:41.817Z,29.64
2019-01-11T21:56:08.175Z,29.72
2019-01-11T21:58:34.599Z,29.68
2019-01-11T22:01:01.087Z,29.80
2019-01-11T22:03:27.457Z,29.77
2019-01-11T22:05:53.827Z,29.69
2019-01-11T22:08:20.235Z,29.67
2019-01-11T22:10:48.791Z,29.74
2019-01-11T22:13:15.157Z,29.72
2019-01-11T22:15:41.557Z,29.83
2019-01-11T22:18:07.927Z,29.85
2019-01-11T22:20:34.360Z,29.94
2019-01-11T22:23:00.820Z,29.96
2019-01-11T22:25:29.571Z,30.04
2019-01-11T22:27:53.556Z,30.02
2019-01-11T22:30:19.963Z,30.04
2019-01-11T22:32:46.326Z,30.10
2019-01-11T22:35:12.716Z,30.15
2019-01-11T22:37:39.079Z,30.13
2019-01-11T22:40:05.452Z,30.12
2019-01-11T22:42:31.906Z,30.17
2019-01-11T22:44:58.266Z,30.19
2019-01-11T22:47:24.643Z,30.20
2019-01-11T22:49:51.011Z,30.31
2019-01-11T22:52:17.444Z,30.31
2019-01-11T22:54:43.816Z,30.36
2019-01-11T22:57:10.211Z,30.26
2019-01-11T22:59:36.592Z,30.25
2019-01-11T23:02:03.061Z,30.34
2019-01-11T23:04:29.437Z,30.21
2019-01-11T23:06:55.850Z,30.31
2019-01-11T23:09:22.203Z,30.32
2019-01-11T23:11:48.693Z,30.37
2019-01-11T23:14:15.128Z,30.44
2019-01-11T23:16:41.524Z,30.43
2019-01-11T23:19:07.853Z,30.43
2019-01-11T23:21:34.323Z,30.39
2019-01-11T23:24:00.697Z,30.41
2019-01-11T23:26:27.088Z,30.47
2019-01-11T23:28:53.452Z,30.52
2019-01-11T23:31:19.809Z,30.52
2019-01-11T23:33:46.184Z,30.54
2019-01-11T23:36:12.639Z,30.51
2019-01-11T23:38:38.968Z,30.54
2019-01-11T23:41:05.390Z,30.45
2019-01-11T23:43:31.750Z,30.61
2019-01-11T23:45:58.114Z,30.63
2019-01-11T23:48:24.474Z,30.65
2019-01-11T23:50:50.905Z,30.66
2019-01-11T23:53:17.243Z,30.68
2019-01-11T23:55:43.671Z,30.69
2019-01-11T23:58:10.029Z,30.60
